sensor_id;sensor_type;location;lat;lon;timestamp;pressure;altitude;pressure_sealevel;temperature;humidity
17711;BME280;8975;57.718;12.134;2023-02-01T00:01:41;115940.22;;;-142.68;51.50
17711;BME280;8975;57.718;12.134;2023-02-01T00:04:07;115940.22;;;-142.68;51.21
17711;BME280;8975;57.718;12.134;2023-02-01T00:06:32;115940.22;;;-142.68;52.01
17711;BME280;8975;57.718;12.134;2023-02-01T00:08:58;115940.22;;;-142.68;52.14
17711;BME280;8975;57.718;12.134;2023-02-01T00:11:24;115940.22;;;-142.68;52.23
17711;BME280;8975;57.718;12.134;2023-02-01T00:13:50;115940.22;;;-142.68;51.91
17711;BME280;8975;57.718;12.134;2023-02-01T00:18:46;115940.22;;;-142.68;52.14
17711;BME280;8975;57.718;12.134;2023-02-01T00:21:13;115940.22;;;-142.68;51.50
17711;BME280;8975;57.718;12.134;2023-02-01T00:23:38;115940.22;;;-142.68;52.69
17711;BME280;8975;57.718;12.134;2023-02-01T00:26:05;115940.22;;;-142.68;52.69
17711;BME280;8975;57.718;12.134;2023-02-01T00:28:31;115940.22;;;-142.68;52.17
17711;BME280;8975;57.718;12.134;2023-02-01T00:31:01;115940.22;;;-142.68;52.16
17711;BME280;8975;57.718;12.134;2023-02-01T00:33:28;115940.22;;;-142.68;51.65
17711;BME280;8975;57.718;12.134;2023-02-01T00:35:58;115940.22;;;-142.68;52.23
17711;BME280;8975;57.718;12.134;2023-02-01T00:38:27;115940.22;;;-142.68;51.84
17711;BME280;8975;57.718;12.134;2023-02-01T00:40:53;115940.22;;;-142.68;51.82
17711;BME280;8975;57.718;12.134;2023-02-01T00:43:19;115940.22;;;-142.68;51.49
17711;BME280;8975;57.718;12.134;2023-02-01T00:45:47;115940.22;;;-142.68;51.24
17711;BME280;8975;57.718;12.134;2023-02-01T00:48:12;115940.22;;;-142.68;52.24
17711;BME280;8975;57.718;12.134;2023-02-01T00:50:44;115940.22;;;-142.68;52.82
17711;BME280;8975;57.718;12.134;2023-02-01T00:53:10;115940.22;;;-142.68;52.82
17711;BME280;8975;57.718;12.134;2023-02-01T00:55:36;115940.22;;;-142.68;51.67
17711;BME280;8975;57.718;12.134;2023-02-01T00:58:02;115940.22;;;-142.68;51.17
17711;BME280;8975;57.718;12.134;2023-02-01T01:00:27;115940.22;;;-142.68;51.62
17711;BME280;8975;57.718;12.134;2023-02-01T01:02:52;115940.22;;;-142.68;51.70
17711;BME280;8975;57.718;12.134;2023-02-01T01:05:18;115940.22;;;-142.68;51.83
17711;BME280;8975;57.718;12.134;2023-02-01T01:07:43;115940.22;;;-142.68;52.40
17711;BME280;8975;57.718;12.134;2023-02-01T01:10:11;115940.22;;;-142.68;50.96
17711;BME280;8975;57.718;12.134;2023-02-01T01:12:36;115940.22;;;-142.68;51.49
17711;BME280;8975;57.718;12.134;2023-02-01T01:15:02;115940.22;;;-142.68;50.58
17711;BME280;8975;57.718;12.134;2023-02-01T01:17:27;115940.22;;;-142.68;51.38
17711;BME280;8975;57.718;12.134;2023-02-01T01:19:53;115940.22;;;-142.68;51.09
17711;BME280;8975;57.718;12.134;2023-02-01T01:22:18;115940.22;;;-142.68;51.20
17711;BME280;8975;57.718;12.134;2023-02-01T01:24:44;115940.22;;;-142.68;51.15
17711;BME280;8975;57.718;12.134;2023-02-01T01:27:09;115940.22;;;-142.68;50.09
17711;BME280;8975;57.718;12.134;2023-02-01T01:29:34;115940.22;;;-142.68;51.06
17711;BME280;8975;57.718;12.134;2023-02-01T01:32:00;115940.22;;;-142.68;50.81
17711;BME280;8975;57.718;12.134;2023-02-01T01:34:25;115940.22;;;-142.68;50.85
17711;BME280;8975;57.718;12.134;2023-02-01T01:36:51;115940.22;;;-142.68;51.96
17711;BME280;8975;57.718;12.134;2023-02-01T01:39:16;115940.22;;;-142.68;51.31
17711;BME280;8975;57.718;12.134;2023-02-01T01:41:41;115940.22;;;-142.68;51.42
17711;BME280;8975;57.718;12.134;2023-02-01T01:47:11;115940.22;;;-142.68;52.75
17711;BME280;8975;57.718;12.134;2023-02-01T01:49:36;115940.22;;;-142.68;51.75
17711;BME280;8975;57.718;12.134;2023-02-01T01:52:03;115940.22;;;-142.68;52.07
17711;BME280;8975;57.718;12.134;2023-02-01T01:54:37;115940.22;;;-142.68;50.95
17711;BME280;8975;57.718;12.134;2023-02-01T01:57:07;115940.22;;;-142.68;50.98
17711;BME280;8975;57.718;12.134;2023-02-01T01:59:36;115940.22;;;-142.68;50.78
17711;BME280;8975;57.718;12.134;2023-02-01T02:02:04;115940.22;;;-142.68;51.57
17711;BME280;8975;57.718;12.134;2023-02-01T02:04:31;115940.22;;;-142.68;50.66
17711;BME280;8975;57.718;12.134;2023-02-01T02:07:11;115940.22;;;-142.68;50.13
17711;BME280;8975;57.718;12.134;2023-02-01T02:09:37;115940.22;;;-142.68;51.93
17711;BME280;8975;57.718;12.134;2023-02-01T02:12:03;115940.22;;;-142.68;51.91
17711;BME280;8975;57.718;12.134;2023-02-01T02:14:29;115940.22;;;-142.68;51.63
17711;BME280;8975;57.718;12.134;2023-02-01T02:37:06;115940.22;;;-142.68;50.29
17711;BME280;8975;57.718;12.134;2023-02-01T02:42:24;115940.22;;;-142.68;51.61
17711;BME280;8975;57.718;12.134;2023-02-01T02:45:20;115940.22;;;-142.68;51.29
17711;BME280;8975;57.718;12.134;2023-02-01T02:48:19;115940.22;;;-142.68;51.39
17711;BME280;8975;57.718;12.134;2023-02-01T02:50:48;115940.22;;;-142.68;51.11
17711;BME280;8975;57.718;12.134;2023-02-01T02:53:39;115940.22;;;-142.68;52.30
17711;BME280;8975;57.718;12.134;2023-02-01T02:56:28;115940.22;;;-142.68;51.94
17711;BME280;8975;57.718;12.134;2023-02-01T02:59:16;115940.22;;;-142.68;51.60
17711;BME280;8975;57.718;12.134;2023-02-01T03:02:04;115940.22;;;-142.68;51.82
17711;BME280;8975;57.718;12.134;2023-02-01T03:04:52;115940.22;;;-142.68;50.68
17711;BME280;8975;57.718;12.134;2023-02-01T03:10:37;115940.22;;;-142.68;51.05
17711;BME280;8975;57.718;12.134;2023-02-01T03:13:09;115940.22;;;-142.68;51.08
17711;BME280;8975;57.718;12.134;2023-02-01T03:15:45;115940.22;;;-142.68;51.09
17711;BME280;8975;57.718;12.134;2023-02-01T03:18:18;115940.22;;;-142.68;51.33
17711;BME280;8975;57.718;12.134;2023-02-01T03:20:49;115940.22;;;-142.68;51.19
17711;BME280;8975;57.718;12.134;2023-02-01T03:23:20;115940.22;;;-142.68;50.79
17711;BME280;8975;57.718;12.134;2023-02-01T03:25:48;115940.22;;;-142.68;51.59
17711;BME280;8975;57.718;12.134;2023-02-01T03:28:16;115940.22;;;-142.68;51.08
17711;BME280;8975;57.718;12.134;2023-02-01T03:30:46;115940.22;;;-142.68;51.44
17711;BME280;8975;57.718;12.134;2023-02-01T03:33:19;115940.22;;;-142.68;51.12
17711;BME280;8975;57.718;12.134;2023-02-01T03:36:02;115940.22;;;-142.68;51.24
17711;BME280;8975;57.718;12.134;2023-02-01T03:39:15;115940.22;;;-142.68;51.57
17711;BME280;8975;57.718;12.134;2023-02-01T03:44:32;115940.22;;;-142.68;51.85
17711;BME280;8975;57.718;12.134;2023-02-01T03:47:03;115940.22;;;-142.68;52.31
17711;BME280;8975;57.718;12.134;2023-02-01T03:49:38;115940.22;;;-142.68;51.80
17711;BME280;8975;57.718;12.134;2023-02-01T03:52:06;115940.22;;;-142.68;51.99
17711;BME280;8975;57.718;12.134;2023-02-01T03:54:35;115940.22;;;-142.68;51.10
17711;BME280;8975;57.718;12.134;2023-02-01T03:57:06;115940.22;;;-142.68;51.15
17711;BME280;8975;57.718;12.134;2023-02-01T03:59:33;115940.22;;;-142.68;50.92
17711;BME280;8975;57.718;12.134;2023-02-01T04:01:58;115940.22;;;-142.68;51.49
17711;BME280;8975;57.718;12.134;2023-02-01T04:04:23;115940.22;;;-142.68;51.58
17711;BME280;8975;57.718;12.134;2023-02-01T04:06:50;115940.22;;;-142.68;51.37
17711;BME280;8975;57.718;12.134;2023-02-01T04:09:15;115940.22;;;-142.68;51.89
17711;BME280;8975;57.718;12.134;2023-02-01T04:11:41;115940.22;;;-142.68;50.80
17711;BME280;8975;57.718;12.134;2023-02-01T04:14:07;115940.22;;;-142.68;51.29
17711;BME280;8975;57.718;12.134;2023-02-01T04:16:33;115940.22;;;-142.68;51.11
17711;BME280;8975;57.718;12.134;2023-02-01T04:18:59;115940.22;;;-142.68;51.27
17711;BME280;8975;57.718;12.134;2023-02-01T04:21:27;115940.22;;;-142.68;50.79
17711;BME280;8975;57.718;12.134;2023-02-01T04:23:53;115940.22;;;-142.68;50.79
17711;BME280;8975;57.718;12.134;2023-02-01T04:26:20;115940.22;;;-142.68;52.04
17711;BME280;8975;57.718;12.134;2023-02-01T04:28:46;115940.22;;;-142.68;50.41
17711;BME280;8975;57.718;12.134;2023-02-01T04:31:15;115940.22;;;-142.68;50.79
17711;BME280;8975;57.718;12.134;2023-02-01T04:33:41;115940.22;;;-142.68;50.71
17711;BME280;8975;57.718;12.134;2023-02-01T04:36:07;115940.22;;;-142.68;50.21
17711;BME280;8975;57.718;12.134;2023-02-01T04:38:33;115940.22;;;-142.68;50.81
17711;BME280;8975;57.718;12.134;2023-02-01T04:40:59;115940.22;;;-142.68;50.63
17711;BME280;8975;57.718;12.134;2023-02-01T04:43:25;115940.22;;;-142.68;49.98
17711;BME280;8975;57.718;12.134;2023-02-01T04:45:50;115940.22;;;-142.68;49.96
17711;BME280;8975;57.718;12.134;2023-02-01T04:48:17;115940.22;;;-142.68;50.28
17711;BME280;8975;57.718;12.134;2023-02-01T04:50:44;115940.22;;;-142.68;50.42
17711;BME280;8975;57.718;12.134;2023-02-01T04:53:16;115940.22;;;-142.68;49.84
17711;BME280;8975;57.718;12.134;2023-02-01T04:55:42;115940.22;;;-142.68;50.74
17711;BME280;8975;57.718;12.134;2023-02-01T04:58:08;115940.22;;;-142.68;50.27
17711;BME280;8975;57.718;12.134;2023-02-01T05:00:34;115940.22;;;-142.68;50.19
17711;BME280;8975;57.718;12.134;2023-02-01T05:02:59;115940.22;;;-142.68;50.15
17711;BME280;8975;57.718;12.134;2023-02-01T05:05:26;115940.22;;;-142.68;50.38
17711;BME280;8975;57.718;12.134;2023-02-01T05:07:52;115940.22;;;-142.68;49.73
17711;BME280;8975;57.718;12.134;2023-02-01T05:10:17;115940.22;;;-142.68;50.35
17711;BME280;8975;57.718;12.134;2023-02-01T05:12:44;115940.22;;;-142.68;50.61
17711;BME280;8975;57.718;12.134;2023-02-01T05:15:28;115940.22;;;-142.68;50.34
17711;BME280;8975;57.718;12.134;2023-02-01T05:17:54;115940.22;;;-142.68;50.37
17711;BME280;8975;57.718;12.134;2023-02-01T05:20:19;115940.22;;;-142.68;50.39
17711;BME280;8975;57.718;12.134;2023-02-01T05:22:45;115940.22;;;-142.68;51.23
17711;BME280;8975;57.718;12.134;2023-02-01T05:25:10;115940.22;;;-142.68;50.04
17711;BME280;8975;57.718;12.134;2023-02-01T05:27:36;115940.22;;;-142.68;50.40
17711;BME280;8975;57.718;12.134;2023-02-01T05:30:03;115940.22;;;-142.68;51.08
17711;BME280;8975;57.718;12.134;2023-02-01T05:32:29;115940.22;;;-142.68;49.76
17711;BME280;8975;57.718;12.134;2023-02-01T05:34:54;115940.22;;;-142.68;50.78
17711;BME280;8975;57.718;12.134;2023-02-01T05:37:19;115940.22;;;-142.68;51.43
17711;BME280;8975;57.718;12.134;2023-02-01T05:39:45;115940.22;;;-142.68;50.83
17711;BME280;8975;57.718;12.134;2023-02-01T05:42:10;115940.22;;;-142.68;50.91
17711;BME280;8975;57.718;12.134;2023-02-01T05:44:36;115940.22;;;-142.68;51.08
17711;BME280;8975;57.718;12.134;2023-02-01T05:47:01;115940.22;;;-142.68;50.98
17711;BME280;8975;57.718;12.134;2023-02-01T05:49:26;115940.22;;;-142.68;51.49
17711;BME280;8975;57.718;12.134;2023-02-01T05:51:52;115940.22;;;-142.68;51.83
17711;BME280;8975;57.718;12.134;2023-02-01T05:54:17;115940.22;;;-142.68;52.16
17711;BME280;8975;57.718;12.134;2023-02-01T05:56:42;115940.22;;;-142.68;51.07
17711;BME280;8975;57.718;12.134;2023-02-01T05:59:09;115940.22;;;-142.68;50.92
17711;BME280;8975;57.718;12.134;2023-02-01T06:01:34;115940.22;;;-142.68;50.36
17711;BME280;8975;57.718;12.134;2023-02-01T06:04:00;115940.22;;;-142.68;50.33
17711;BME280;8975;57.718;12.134;2023-02-01T06:06:25;115940.22;;;-142.68;50.50
17711;BME280;8975;57.718;12.134;2023-02-01T06:08:51;115940.22;;;-142.68;50.42
17711;BME280;8975;57.718;12.134;2023-02-01T06:11:16;115940.22;;;-142.68;49.77
17711;BME280;8975;57.718;12.134;2023-02-01T06:13:41;115940.22;;;-142.68;50.91
17711;BME280;8975;57.718;12.134;2023-02-01T06:16:07;115940.22;;;-142.68;50.19
17711;BME280;8975;57.718;12.134;2023-02-01T06:18:33;115940.22;;;-142.68;50.85
17711;BME280;8975;57.718;12.134;2023-02-01T06:21:00;115940.22;;;-142.68;50.66
17711;BME280;8975;57.718;12.134;2023-02-01T06:23:26;115940.22;;;-142.68;49.96
17711;BME280;8975;57.718;12.134;2023-02-01T06:25:52;115940.22;;;-142.68;50.22
17711;BME280;8975;57.718;12.134;2023-02-01T06:28:23;115940.22;;;-142.68;49.86
17711;BME280;8975;57.718;12.134;2023-02-01T06:30:49;115940.22;;;-142.68;50.21
17711;BME280;8975;57.718;12.134;2023-02-01T06:33:14;115940.22;;;-142.68;49.74
17711;BME280;8975;57.718;12.134;2023-02-01T06:35:41;115940.22;;;-142.68;49.44
17711;BME280;8975;57.718;12.134;2023-02-01T06:38:07;115940.22;;;-142.68;49.66
17711;BME280;8975;57.718;12.134;2023-02-01T06:40:33;115940.22;;;-142.68;49.43
17711;BME280;8975;57.718;12.134;2023-02-01T06:42:58;115940.22;;;-142.68;50.79
17711;BME280;8975;57.718;12.134;2023-02-01T06:45:24;115940.22;;;-142.68;50.49
17711;BME280;8975;57.718;12.134;2023-02-01T06:47:49;115940.22;;;-142.68;51.01
17711;BME280;8975;57.718;12.134;2023-02-01T06:50:15;115940.22;;;-142.68;50.70
17711;BME280;8975;57.718;12.134;2023-02-01T06:52:40;115940.22;;;-142.68;50.01
17711;BME280;8975;57.718;12.134;2023-02-01T06:55:06;115940.22;;;-142.68;50.06
17711;BME280;8975;57.718;12.134;2023-02-01T06:57:32;115940.22;;;-142.68;50.32
17711;BME280;8975;57.718;12.134;2023-02-01T06:59:59;115940.22;;;-142.68;50.14
17711;BME280;8975;57.718;12.134;2023-02-01T07:02:25;115940.22;;;-142.68;50.71
17711;BME280;8975;57.718;12.134;2023-02-01T07:04:50;115940.22;;;-142.68;50.66
17711;BME280;8975;57.718;12.134;2023-02-01T07:07:17;115940.22;;;-142.68;49.67
17711;BME280;8975;57.718;12.134;2023-02-01T07:09:44;115940.22;;;-142.68;50.01
17711;BME280;8975;57.718;12.134;2023-02-01T07:12:10;115940.22;;;-142.68;50.00
17711;BME280;8975;57.718;12.134;2023-02-01T07:14:35;115940.22;;;-142.68;50.51
17711;BME280;8975;57.718;12.134;2023-02-01T07:17:00;115940.22;;;-142.68;50.09
17711;BME280;8975;57.718;12.134;2023-02-01T07:19:26;115940.22;;;-142.68;48.96
17711;BME280;8975;57.718;12.134;2023-02-01T07:21:51;115940.22;;;-142.68;49.00
17711;BME280;8975;57.718;12.134;2023-02-01T07:24:17;115940.22;;;-142.68;48.81
17711;BME280;8975;57.718;12.134;2023-02-01T07:26:42;115940.22;;;-142.68;49.19
17711;BME280;8975;57.718;12.134;2023-02-01T07:29:07;115940.22;;;-142.68;49.28
17711;BME280;8975;57.718;12.134;2023-02-01T07:31:33;115940.22;;;-142.68;49.77
17711;BME280;8975;57.718;12.134;2023-02-01T07:33:58;115940.22;;;-142.68;50.30
17711;BME280;8975;57.718;12.134;2023-02-01T07:36:24;115940.22;;;-142.68;50.36
17711;BME280;8975;57.718;12.134;2023-02-01T07:38:50;115940.22;;;-142.68;50.37
17711;BME280;8975;57.718;12.134;2023-02-01T07:41:17;115940.22;;;-142.68;50.61
17711;BME280;8975;57.718;12.134;2023-02-01T07:43:44;115940.22;;;-142.68;50.10
17711;BME280;8975;57.718;12.134;2023-02-01T07:46:10;115940.22;;;-142.68;50.55
17711;BME280;8975;57.718;12.134;2023-02-01T07:48:36;115940.22;;;-142.68;49.36
17711;BME280;8975;57.718;12.134;2023-02-01T07:51:08;115940.22;;;-142.68;49.85
17711;BME280;8975;57.718;12.134;2023-02-01T07:53:34;115940.22;;;-142.68;49.62
17711;BME280;8975;57.718;12.134;2023-02-01T07:56:01;115940.22;;;-142.68;50.02
17711;BME280;8975;57.718;12.134;2023-02-01T07:58:26;115940.22;;;-142.68;49.64
17711;BME280;8975;57.718;12.134;2023-02-01T08:00:53;115940.22;;;-142.68;50.07
17711;BME280;8975;57.718;12.134;2023-02-01T08:03:37;115940.22;;;-142.68;50.17
17711;BME280;8975;57.718;12.134;2023-02-01T08:06:04;115940.22;;;-142.68;49.44
17711;BME280;8975;57.718;12.134;2023-02-01T08:08:30;115940.22;;;-142.68;49.91
17711;BME280;8975;57.718;12.134;2023-02-01T08:11:03;115940.22;;;-142.68;49.97
17711;BME280;8975;57.718;12.134;2023-02-01T08:13:29;115940.22;;;-142.68;49.72
17711;BME280;8975;57.718;12.134;2023-02-01T08:15:59;115940.22;;;-142.68;50.29
17711;BME280;8975;57.718;12.134;2023-02-01T08:18:24;115940.22;;;-142.68;49.55
17711;BME280;8975;57.718;12.134;2023-02-01T08:20:49;115940.22;;;-142.68;49.74
17711;BME280;8975;57.718;12.134;2023-02-01T08:23:16;115940.22;;;-142.68;50.19
17711;BME280;8975;57.718;12.134;2023-02-01T08:25:42;115940.22;;;-142.68;49.67
17711;BME280;8975;57.718;12.134;2023-02-01T08:28:08;115940.22;;;-142.68;49.38
17711;BME280;8975;57.718;12.134;2023-02-01T08:30:36;115940.22;;;-142.68;49.62
17711;BME280;8975;57.718;12.134;2023-02-01T08:33:02;115940.22;;;-142.68;49.44
17711;BME280;8975;57.718;12.134;2023-02-01T08:35:27;115940.22;;;-142.68;48.89
17711;BME280;8975;57.718;12.134;2023-02-01T08:37:53;115940.22;;;-142.68;49.85
17711;BME280;8975;57.718;12.134;2023-02-01T08:40:18;115940.22;;;-142.68;49.41
17711;BME280;8975;57.718;12.134;2023-02-01T08:42:44;115940.22;;;-142.68;48.76
17711;BME280;8975;57.718;12.134;2023-02-01T08:45:16;115940.22;;;-142.68;48.90
17711;BME280;8975;57.718;12.134;2023-02-01T08:47:43;115940.22;;;-142.68;49.33
17711;BME280;8975;57.718;12.134;2023-02-01T08:50:10;115940.22;;;-142.68;48.65
17711;BME280;8975;57.718;12.134;2023-02-01T08:52:35;115940.22;;;-142.68;48.01
17711;BME280;8975;57.718;12.134;2023-02-01T08:55:01;115940.22;;;-142.68;48.53
17711;BME280;8975;57.718;12.134;2023-02-01T08:57:26;115940.22;;;-142.68;49.05
17711;BME280;8975;57.718;12.134;2023-02-01T08:59:52;115940.22;;;-142.68;47.92
17711;BME280;8975;57.718;12.134;2023-02-01T09:02:17;115940.22;;;-142.68;47.73
17711;BME280;8975;57.718;12.134;2023-02-01T09:04:43;115940.22;;;-142.68;48.52
17711;BME280;8975;57.718;12.134;2023-02-01T09:07:09;115940.22;;;-142.68;48.75
17711;BME280;8975;57.718;12.134;2023-02-01T09:09:36;115940.22;;;-142.68;49.96
17711;BME280;8975;57.718;12.134;2023-02-01T09:12:03;115940.22;;;-142.68;50.66
17711;BME280;8975;57.718;12.134;2023-02-01T09:14:29;115940.22;;;-142.68;50.17
17711;BME280;8975;57.718;12.134;2023-02-01T09:16:54;115940.22;;;-142.68;50.53
17711;BME280;8975;57.718;12.134;2023-02-01T09:19:20;115940.22;;;-142.68;50.19
17711;BME280;8975;57.718;12.134;2023-02-01T09:21:45;115940.22;;;-142.68;50.54
17711;BME280;8975;57.718;12.134;2023-02-01T09:24:11;115940.22;;;-142.68;50.35
17711;BME280;8975;57.718;12.134;2023-02-01T09:26:37;115940.22;;;-142.68;50.81
17711;BME280;8975;57.718;12.134;2023-02-01T09:29:03;115940.22;;;-142.68;50.42
17711;BME280;8975;57.718;12.134;2023-02-01T09:31:31;115940.22;;;-142.68;50.46
17711;BME280;8975;57.718;12.134;2023-02-01T09:33:57;115940.22;;;-142.68;51.07
17711;BME280;8975;57.718;12.134;2023-02-01T09:36:22;115940.22;;;-142.68;50.74
17711;BME280;8975;57.718;12.134;2023-02-01T09:38:49;115940.22;;;-142.68;52.31
17711;BME280;8975;57.718;12.134;2023-02-01T09:46:40;115940.22;;;-142.68;52.24
17711;BME280;8975;57.718;12.134;2023-02-01T09:49:12;115940.22;;;-142.68;52.50
17711;BME280;8975;57.718;12.134;2023-02-01T09:51:45;115940.22;;;-142.68;52.77
17711;BME280;8975;57.718;12.134;2023-02-01T09:54:42;115940.22;;;-142.68;52.75
17711;BME280;8975;57.718;12.134;2023-02-01T09:58:33;115940.22;;;-142.68;51.81
17711;BME280;8975;57.718;12.134;2023-02-01T10:00:35;115940.22;;;-142.68;51.89
17711;BME280;8975;57.718;12.134;2023-02-01T10:03:01;115940.22;;;-142.68;51.82
17711;BME280;8975;57.718;12.134;2023-02-01T10:08:24;115940.22;;;-142.68;51.13
17711;BME280;8975;57.718;12.134;2023-02-01T10:10:58;115940.22;;;-142.68;51.54
17711;BME280;8975;57.718;12.134;2023-02-01T10:24:24;115940.22;;;-142.68;51.44
17711;BME280;8975;57.718;12.134;2023-02-01T10:27:01;115940.22;;;-142.68;51.77
17711;BME280;8975;57.718;12.134;2023-02-01T10:29:35;115940.22;;;-142.68;50.57
17711;BME280;8975;57.718;12.134;2023-02-01T10:32:03;115940.22;;;-142.68;50.16
17711;BME280;8975;57.718;12.134;2023-02-01T10:34:36;115940.22;;;-142.68;50.66
17711;BME280;8975;57.718;12.134;2023-02-01T10:37:29;115940.22;;;-142.68;50.98
17711;BME280;8975;57.718;12.134;2023-02-01T10:39:56;115940.22;;;-142.68;51.57
17711;BME280;8975;57.718;12.134;2023-02-01T10:42:27;115940.22;;;-142.68;51.46
17711;BME280;8975;57.718;12.134;2023-02-01T10:44:56;115940.22;;;-142.68;50.35
17711;BME280;8975;57.718;12.134;2023-02-01T10:47:24;115940.22;;;-142.68;50.73
17711;BME280;8975;57.718;12.134;2023-02-01T10:49:55;115940.22;;;-142.68;51.28
17711;BME280;8975;57.718;12.134;2023-02-01T10:52:31;115940.22;;;-142.68;51.49
17711;BME280;8975;57.718;12.134;2023-02-01T10:58:05;115940.22;;;-142.68;51.54
17711;BME280;8975;57.718;12.134;2023-02-01T11:00:42;115940.22;;;-142.68;50.77
17711;BME280;8975;57.718;12.134;2023-02-01T11:03:34;115940.22;;;-142.68;51.04
17711;BME280;8975;57.718;12.134;2023-02-01T11:06:02;115940.22;;;-142.68;50.86
17711;BME280;8975;57.718;12.134;2023-02-01T11:08:30;115940.22;;;-142.68;50.96
17711;BME280;8975;57.718;12.134;2023-02-01T11:11:03;115940.22;;;-142.68;51.33
17711;BME280;8975;57.718;12.134;2023-02-01T11:13:32;115940.22;;;-142.68;51.76
17711;BME280;8975;57.718;12.134;2023-02-01T11:16:03;115940.22;;;-142.68;50.83
17711;BME280;8975;57.718;12.134;2023-02-01T11:18:32;115940.22;;;-142.68;50.89
17711;BME280;8975;57.718;12.134;2023-02-01T11:21:00;115940.22;;;-142.68;50.28
17711;BME280;8975;57.718;12.134;2023-02-01T11:23:27;115940.22;;;-142.68;52.71
17711;BME280;8975;57.718;12.134;2023-02-01T11:25:55;115940.22;;;-142.68;52.52
17711;BME280;8975;57.718;12.134;2023-02-01T11:28:33;115940.22;;;-142.68;52.34
17711;BME280;8975;57.718;12.134;2023-02-01T11:31:03;115940.22;;;-142.68;52.09
17711;BME280;8975;57.718;12.134;2023-02-01T11:33:32;115940.22;;;-142.68;52.24
17711;BME280;8975;57.718;12.134;2023-02-01T11:36:05;115940.22;;;-142.68;52.07
17711;BME280;8975;57.718;12.134;2023-02-01T11:38:33;115940.22;;;-142.68;53.31
17711;BME280;8975;57.718;12.134;2023-02-01T11:41:13;115940.22;;;-142.68;53.31
17711;BME280;8975;57.718;12.134;2023-02-01T11:43:54;115940.22;;;-142.68;52.19
17711;BME280;8975;57.718;12.134;2023-02-01T11:46:23;115940.22;;;-142.68;52.49
17711;BME280;8975;57.718;12.134;2023-02-01T11:48:53;115940.22;;;-142.68;51.52
17711;BME280;8975;57.718;12.134;2023-02-01T11:54:10;115940.22;;;-142.68;51.50
17711;BME280;8975;57.718;12.134;2023-02-01T12:00:21;115940.22;;;-142.68;51.23
17711;BME280;8975;57.718;12.134;2023-02-01T12:22:00;115940.22;;;-142.68;50.62
17711;BME280;8975;57.718;12.134;2023-02-01T12:43:54;115940.22;;;-142.68;50.94
17711;BME280;8975;57.718;12.134;2023-02-01T12:46:25;115940.22;;;-142.68;51.89
17711;BME280;8975;57.718;12.134;2023-02-01T12:51:40;115940.22;;;-142.68;50.31
17711;BME280;8975;57.718;12.134;2023-02-01T12:54:23;115940.22;;;-142.68;51.29
17711;BME280;8975;57.718;12.134;2023-02-01T12:56:58;115940.22;;;-142.68;50.61
17711;BME280;8975;57.718;12.134;2023-02-01T12:59:42;115940.22;;;-142.68;50.04
17711;BME280;8975;57.718;12.134;2023-02-01T13:07:29;115940.22;;;-142.68;50.34
17711;BME280;8975;57.718;12.134;2023-02-01T13:10:03;115940.22;;;-142.68;50.64
17711;BME280;8975;57.718;12.134;2023-02-01T13:12:37;115940.22;;;-142.68;50.81
17711;BME280;8975;57.718;12.134;2023-02-01T13:15:17;115940.22;;;-142.68;50.47
17711;BME280;8975;57.718;12.134;2023-02-01T13:17:46;115940.22;;;-142.68;50.35
17711;BME280;8975;57.718;12.134;2023-02-01T13:23:11;115940.22;;;-142.68;51.74
17711;BME280;8975;57.718;12.134;2023-02-01T13:25:47;115940.22;;;-142.68;51.19
17711;BME280;8975;57.718;12.134;2023-02-01T13:28:26;115940.22;;;-142.68;50.98
17711;BME280;8975;57.718;12.134;2023-02-01T13:42:22;115940.22;;;-142.68;50.79
17711;BME280;8975;57.718;12.134;2023-02-01T13:44:59;115940.22;;;-142.68;51.86
17711;BME280;8975;57.718;12.134;2023-02-01T13:47:41;115940.22;;;-142.68;52.28
17711;BME280;8975;57.718;12.134;2023-02-01T13:53:35;115940.22;;;-142.68;51.79
17711;BME280;8975;57.718;12.134;2023-02-01T13:55:38;115940.22;;;-142.68;51.23
17711;BME280;8975;57.718;12.134;2023-02-01T13:58:29;115940.22;;;-142.68;51.44
17711;BME280;8975;57.718;12.134;2023-02-01T14:03:50;115940.22;;;-142.68;50.42
17711;BME280;8975;57.718;12.134;2023-02-01T14:11:54;115940.22;;;-142.68;51.05
17711;BME280;8975;57.718;12.134;2023-02-01T14:19:36;115940.22;;;-142.68;51.44
17711;BME280;8975;57.718;12.134;2023-02-01T14:24:39;115940.22;;;-142.68;50.35
17711;BME280;8975;57.718;12.134;2023-02-01T14:29:40;115940.22;;;-142.68;49.80
17711;BME280;8975;57.718;12.134;2023-02-01T14:44:53;115940.22;;;-142.68;50.24
17711;BME280;8975;57.718;12.134;2023-02-01T14:52:20;115940.22;;;-142.68;50.35
17711;BME280;8975;57.718;12.134;2023-02-01T14:54:56;115940.22;;;-142.68;50.58
17711;BME280;8975;57.718;12.134;2023-02-01T14:57:26;115940.22;;;-142.68;50.83
17711;BME280;8975;57.718;12.134;2023-02-01T15:00:00;115940.22;;;-142.68;50.58
17711;BME280;8975;57.718;12.134;2023-02-01T15:02:33;115940.22;;;-142.68;51.33
17711;BME280;8975;57.718;12.134;2023-02-01T15:05:00;115940.22;;;-142.68;51.88
17711;BME280;8975;57.718;12.134;2023-02-01T15:07:26;115940.22;;;-142.68;51.66
17711;BME280;8975;57.718;12.134;2023-02-01T15:09:56;115940.22;;;-142.68;51.94
17711;BME280;8975;57.718;12.134;2023-02-01T15:12:26;115940.22;;;-142.68;52.72
17711;BME280;8975;57.718;12.134;2023-02-01T15:15:15;115940.22;;;-142.68;52.26
17711;BME280;8975;57.718;12.134;2023-02-01T15:17:52;115940.22;;;-142.68;52.23
17711;BME280;8975;57.718;12.134;2023-02-01T15:20:21;115940.22;;;-142.68;51.78
17711;BME280;8975;57.718;12.134;2023-02-01T15:22:58;115940.22;;;-142.68;52.35
17711;BME280;8975;57.718;12.134;2023-02-01T15:25:30;115940.22;;;-142.68;52.99